Tiempo atmosférico en la estación meteorológica de Beteta, Cuenca (1214 m.)



Fecha
DESCASC
Temp. máxima en grados centígrados (hora)
DESCASC
Temp. mínima en grados centígrados (hora)
DESCASC
Temp. media en grados centígrados
DESCASC
Racha de viento máxima en m/sg (hora)
DESCASC
Velocidad máxima media en intervalos de 10 minutos(hora)
DESCASC
Precipitaciones diarias en mm
DESCASC
Precipitaciones de 00:00 a 06:00 en mm
DESCASC
Precipitaciones de 06:00 a 12:00 en mm
DESCASC
Precipitaciones de 12:00 a 18:00 en mm
DESCASC
Precipitaciones de 18:00 a 24:00 en mm
DESCASC
18-02-2018 7.3 (16:40) -2.2 (07:20) 2.6 -- (--) -- (--) 0 0 0 0 0
17-02-2018 10.2 (13:50) 1.1 (23:59) 5.6 -- (--) -- (--) 0 0 0 0 0
16-02-2018 12.8 (13:30) 3.4 (06:10) 8.1 -- (--) -- (--) 0 0 0 0 0
15-02-2018 11.2 (16:20) 3.9 (00:00) 7.5 -- (--) -- (--) 0 0 0 0 0
14-02-2018 4.2 (16:20) 1.4 (00:00) 2.8 -- (--) -- (--) 1.6 1 0 0.4 0.2
13-02-2018 2.1 (16:20) -7.9 (-00:0) -2.9 -- (--) -- (--) 0.4 0 0 0 0.4
12-02-2018 3.6 (02:40) -3.7 (-00:0) -0.1 -- (--) -- (--) 1.8 1.6 0.2 0 0
11-02-2018 7.6 (16:10) -2.6 (-00:0) 2.5 -- (--) -- (--) 3.6 0 1.2 2.2 0.2
10-02-2018 1.4 (16:50) -3.3 (-00:0) -0.9 -- (--) -- (--) 0 0 0 0 0
09-02-2018 2.5 (14:50) -11.8 (-00:0) -4.7 -- (--) -- (--) 5.6 0 0.6 5 0
08-02-2018 -0.9 (15:30) -8.7 (-00:0) -4.8 -- (--) -- (--) 0 0 0 0 0
07-02-2018 -0.8 (14:50) -5.6 (-00:0) -3.2 -- (--) -- (--) 0.4 0 0 0.4 0
06-02-2018 -1.4 (02:40) -4.1 (-00:0) -2.7 -- (--) -- (--) 0 0 0 0 0
05-02-2018 2.2 (15:30) -2.6 (-00:0) -0.2 -- (--) -- (--) 3.2 0 0.4 2.8 0
04-02-2018 1.5 (00:00) -2.5 (-00:0) -0.5 -- (--) -- (--) 2.6 0 0 2.6 0
03-02-2018 4.3 (17:20) -2.7 (09:00) 0.8 -- (--) -- (--) 0.2 0 0.2 0 0
02-02-2018 1.4 (15:40) -3 (04:50) -0.8 -- (--) -- (--) 0 0 0 0 0

Gráficas

Temp. máximas Temp. mínimas Temp. medias Precipitaciones Rachas de viento máximas Velocidades máximas media en intervalos de 10 minutos

Datos horarios

Fecha y hora oficial Temperatura (ºC) Velocidad del viento (km/h) Dirección del viento Racha (km/h) Dirección de racha Precipitación (mm) Presión (hPa) Tendencia (hPa) Humedad (%)
2018-02-20 23:00:00 2.3 -- -- -- -- 0 -- -- 75
2018-02-20 22:00:00 2.6 -- -- -- -- 0 -- -- 74
2018-02-20 21:00:00 3.3 -- -- -- -- 0 -- -- 75
2018-02-20 20:00:00 4.2 -- -- -- -- 0 -- -- 69
2018-02-20 19:00:00 5.3 -- -- -- -- 0 -- -- 70
2018-02-20 18:00:00 6.2 -- -- -- -- 0 -- -- 70
2018-02-20 17:00:00 7.2 -- -- -- -- 0 -- -- 68
2018-02-20 16:00:00 7.1 -- -- -- -- 0 -- -- 70
2018-02-20 15:00:00 7 -- -- -- -- 0 -- -- 70
2018-02-20 14:00:00 7.6 -- -- -- -- 0 -- -- 68
2018-02-20 13:00:00 6.3 -- -- -- -- 0 -- -- 71
2018-02-20 12:00:00 6.2 -- -- -- -- 0 -- -- 73
2018-02-20 11:00:00 5.8 -- -- -- -- 0 -- -- 77
2018-02-20 10:00:00 5 -- -- -- -- 0 -- -- 82
2018-02-20 09:00:00 4.6 -- -- -- -- 0 -- -- 84
2018-02-20 08:00:00 4.5 -- -- -- -- 0 -- -- 87
2018-02-20 07:00:00 4.6 -- -- -- -- 0 -- -- 86
2018-02-20 06:00:00 4.6 -- -- -- -- 0 -- -- 87
2018-02-20 05:00:00 4.6 -- -- -- -- 0 -- -- 87
2018-02-20 04:00:00 4.8 -- -- -- -- 0 -- -- 86
2018-02-20 03:00:00 4.6 -- -- -- -- 0 -- -- 88
2018-02-20 02:00:00 4.3 -- -- -- -- 0 -- -- 92
2018-02-20 01:00:00 4.4 -- -- -- -- 0 -- -- 91
2018-02-20 00:00:00 4.6 -- -- -- -- 0 -- -- 88
2018-02-19 23:00:00 4.8 -- -- -- -- 0 -- -- 87
2018-02-19 22:00:00 5.2 -- -- -- -- 0 -- -- 85
2018-02-19 21:00:00 5.4 -- -- -- -- 0 -- -- 82
2018-02-19 20:00:00 5.6 -- -- -- -- 0 -- -- 82
2018-02-19 19:00:00 5.9 -- -- -- -- 0 -- -- 84
2018-02-19 18:00:00 6.2 -- -- -- -- 0.4 -- -- 83
2018-02-19 17:00:00 6.9 -- -- -- -- 0 -- -- 80
2018-02-19 16:00:00 6.7 -- -- -- -- 0.2 -- -- 80
2018-02-19 15:00:00 8.5 -- -- -- -- 0 -- -- 64
2018-02-19 14:00:00 8.3 -- -- -- -- 0 -- -- 66
2018-02-19 13:00:00 8.1 -- -- -- -- 0 -- -- 65
2018-02-19 12:00:00 6.9 -- -- -- -- 0 -- -- 71
2018-02-19 11:00:00 4.6 -- -- -- -- 0 -- -- 77
2018-02-19 10:00:00 3.7 -- -- -- -- 0 -- -- 84
2018-02-19 09:00:00 2 -- -- -- -- 0 -- -- 89
2018-02-19 08:00:00 1.9 -- -- -- -- 0 -- -- 87
2018-02-19 07:00:00 3 -- -- -- -- 0 -- -- 84
2018-02-19 06:00:00 2.6 -- -- -- -- 0 -- -- 86
2018-02-19 05:00:00 2.2 -- -- -- -- 0 -- -- 87
2018-02-19 04:00:00 3 -- -- -- -- 0 -- -- 85
2018-02-19 03:00:00 3.2 -- -- -- -- 0 -- -- 85
2018-02-19 02:00:00 3 -- -- -- -- 0 -- -- 85
2018-02-19 01:00:00 2.8 -- -- -- -- 0 -- -- 85
2018-02-19 00:00:00 3.6 -- -- -- -- 0 -- -- 82
2018-02-18 23:00:00 4 -- -- -- -- 0 -- -- 83
2018-02-18 22:00:00 4.3 -- -- -- -- 0 -- -- 82
2018-02-18 21:00:00 4.4 -- -- -- -- 0 -- -- 80
2018-02-18 20:00:00 4.6 -- -- -- -- 0 -- -- 75
2018-02-18 19:00:00 5.9 -- -- -- -- 0 -- -- 69
2018-02-18 18:00:00 6.4 -- -- -- -- 0 -- -- 63
2018-02-18 17:00:00 7.3 -- -- -- -- 0 -- -- 54
2018-02-18 16:00:00 7.1 -- -- -- -- 0 -- -- 52
2018-02-18 15:00:00 6.4 -- -- -- -- 0 -- -- 49
2018-02-18 14:00:00 5.7 -- -- -- -- 0 -- -- 53
2018-02-18 13:00:00 5.7 -- -- -- -- 0 -- -- 42
2018-02-18 12:00:00 4.7 -- -- -- -- 0 -- -- 45
2018-02-18 11:00:00 2.2 -- -- -- -- 0 -- -- 67
2018-02-18 10:00:00 0 -- -- -- -- 0 -- -- 85
2018-02-18 09:00:00 -1.7 -- -- -- -- 0 -- -- 89
2018-02-18 08:00:00 -2.2 -- -- -- -- 0 -- -- 90
2018-02-18 07:00:00 -2 -- -- -- -- 0 -- -- 89
2018-02-18 06:00:00 -1.5 -- -- -- -- 0 -- -- 88
2018-02-18 05:00:00 -1.3 -- -- -- -- 0 -- -- 87
2018-02-18 04:00:00 -0.8 -- -- -- -- 0 -- -- 86
2018-02-18 03:00:00 -0.5 -- -- -- -- 0 -- -- 84
2018-02-18 02:00:00 -0.3 -- -- -- -- 0 -- -- 83
2018-02-18 01:00:00 0.4 -- -- -- -- 0 -- -- 85
2018-02-18 00:00:00 1.1 -- -- -- -- 0 -- -- 84
2018-02-17 23:00:00 2 -- -- -- -- 0 -- -- 84
2018-02-17 22:00:00 3.1 -- -- -- -- 0 -- -- 82
2018-02-17 21:00:00 4 -- -- -- -- 0 -- -- 81
2018-02-17 20:00:00 4.7 -- -- -- -- 0 -- -- 83
2018-02-17 19:00:00 5 -- -- -- -- 0 -- -- 83
2018-02-17 18:00:00 5.8 -- -- -- -- 0 -- -- 80
2018-02-17 17:00:00 6.4 -- -- -- -- 0 -- -- 77
2018-02-17 16:00:00 7.2 -- -- -- -- 0 -- -- 78
2018-02-17 15:00:00 9 -- -- -- -- 0 -- -- 69
2018-02-17 14:00:00 9.7 -- -- -- -- 0 -- -- 67
2018-02-17 13:00:00 9.3 -- -- -- -- 0 -- -- 68
2018-02-17 12:00:00 8.2 -- -- -- -- 0 -- -- 73
2018-02-17 11:00:00 7.5 -- -- -- -- 0 -- -- 76
2018-02-17 10:00:00 5.9 -- -- -- -- 0 -- -- 88
2018-02-17 09:00:00 5.3 -- -- -- -- 0 -- -- 97
2018-02-17 08:00:00 4.8 -- -- -- -- 0 -- -- 98
2018-02-17 07:00:00 4.2 -- -- -- -- 0 -- -- 98
2018-02-17 06:00:00 3.9 -- -- -- -- 0 -- -- 97
2018-02-17 05:00:00 4 -- -- -- -- 0 -- -- 97
2018-02-17 04:00:00 4 -- -- -- -- 0 -- -- 96
2018-02-17 03:00:00 3.9 -- -- -- -- 0 -- -- 96
2018-02-17 02:00:00 3.8 -- -- -- -- 0 -- -- 95
2018-02-17 01:00:00 4.3 -- -- -- -- 0 -- -- 94
2018-02-17 00:00:00 4.7 -- -- -- -- 0 -- -- 92
2018-02-16 23:00:00 5.9 -- -- -- -- 0 -- -- 88
2018-02-16 22:00:00 7.6 -- -- -- -- 0 -- -- 87
2018-02-16 21:00:00 8.7 -- -- -- -- 0 -- -- 83
2018-02-16 20:00:00 9.2 -- -- -- -- 0 -- -- 82
2018-02-16 19:00:00 10.3 -- -- -- -- 0 -- -- 77
2018-02-16 18:00:00 11.8 -- -- -- -- 0 -- -- 70
2018-02-16 17:00:00 12.5 -- -- -- -- 0 -- -- 69
2018-02-16 16:00:00 12.2 -- -- -- -- 0 -- -- 70
2018-02-16 15:00:00 12.3 -- -- -- -- 0 -- -- 71
2018-02-16 14:00:00 12.6 -- -- -- -- 0 -- -- 69
2018-02-16 13:00:00 12.6 -- -- -- -- 0 -- -- 71
2018-02-16 12:00:00 11.1 -- -- -- -- 0 -- -- 78
2018-02-16 11:00:00 7.4 -- -- -- -- 0 -- -- 98
2018-02-16 10:00:00 5.6 -- -- -- -- 0 -- -- 100
2018-02-16 09:00:00 3.8 -- -- -- -- 0 -- -- 98
2018-02-16 08:00:00 3.4 -- -- -- -- 0 -- -- 98
2018-02-16 07:00:00 3.8 -- -- -- -- 0 -- -- 98
2018-02-16 06:00:00 3.5 -- -- -- -- 0 -- -- 98
2018-02-16 05:00:00 3.6 -- -- -- -- 0 -- -- 97
2018-02-16 04:00:00 3.9 -- -- -- -- 0 -- -- 97
2018-02-16 03:00:00 4.2 -- -- -- -- 0 -- -- 97
2018-02-16 02:00:00 4.2 -- -- -- -- 0 -- -- 96
2018-02-16 01:00:00 4.4 -- -- -- -- 0 -- -- 96
2018-02-16 00:00:00 4.6 -- -- -- -- 0 -- -- 95
2018-02-15 23:00:00 5.1 -- -- -- -- 0 -- -- 94
2018-02-15 22:00:00 5.7 -- -- -- -- 0 -- -- 93
2018-02-15 21:00:00 6.5 -- -- -- -- 0 -- -- 91
2018-02-15 20:00:00 7.3 -- -- -- -- 0 -- -- 90
2018-02-15 19:00:00 9 -- -- -- -- 0 -- -- 84
2018-02-15 18:00:00 10.6 -- -- -- -- 0 -- -- 79
2018-02-15 17:00:00 11 -- -- -- -- 0 -- -- 78
2018-02-15 16:00:00 10.9 -- -- -- -- 0 -- -- 79
2018-02-15 15:00:00 9.8 -- -- -- -- 0 -- -- 82
2018-02-15 14:00:00 9.5 -- -- -- -- 0 -- -- 84
2018-02-15 13:00:00 7.9 -- -- -- -- 0 -- -- 96
2018-02-15 12:00:00 6.5 -- -- -- -- 0 -- -- 100
2018-02-15 11:00:00 5.5 -- -- -- -- 0 -- -- 100
2018-02-15 10:00:00 4.5 -- -- -- -- 0 -- -- 100
2018-02-15 09:00:00 4 -- -- -- -- 0 -- -- 100
2018-02-15 08:00:00 4 -- -- -- -- 0 -- -- 100
2018-02-15 07:00:00 4 -- -- -- -- 0 -- -- 100
2018-02-15 06:00:00 4 -- -- -- -- 0 -- -- 100
2018-02-15 05:00:00 4 -- -- -- -- 0 -- -- 100
2018-02-15 04:00:00 4.1 -- -- -- -- 0 -- -- 100
2018-02-15 03:00:00 4 -- -- -- -- 0 -- -- 99
2018-02-15 02:00:00 4 -- -- -- -- 0 -- -- 99
2018-02-15 01:00:00 4 -- -- -- -- 0 -- -- 99
2018-02-15 00:00:00 4.1 -- -- -- -- 0 -- -- 99
2018-02-14 23:00:00 4.1 -- -- -- -- 0 -- -- 99
2018-02-14 22:00:00 4.1 -- -- -- -- 0 -- -- 98
2018-02-14 21:00:00 4.2 -- -- -- -- 0.2 -- -- 98
2018-02-14 20:00:00 4.2 -- -- -- -- 0 -- -- 97
2018-02-14 19:00:00 4.2 -- -- -- -- 0 -- -- 96
2018-02-14 18:00:00 4.2 -- -- -- -- 0 -- -- 96
2018-02-14 17:00:00 4.2 -- -- -- -- 0.2 -- -- 97
2018-02-14 16:00:00 4.1 -- -- -- -- 0.2 -- -- 97
2018-02-14 15:00:00 3.8 -- -- -- -- 0 -- -- 98
2018-02-14 14:00:00 3.3 -- -- -- -- 0 -- -- 99
2018-02-14 13:00:00 2.9 -- -- -- -- 0 -- -- 99
2018-02-14 12:00:00 2.8 -- -- -- -- 0 -- -- 99
2018-02-14 11:00:00 2.4 -- -- -- -- 0 -- -- 99
2018-02-14 10:00:00 2.2 -- -- -- -- 0 -- -- 99
2018-02-14 09:00:00 2 -- -- -- -- 0 -- -- 99
2018-02-14 08:00:00 2.1 -- -- -- -- 0 -- -- 99
2018-02-14 07:00:00 2.1 -- -- -- -- 0 -- -- 99
2018-02-14 06:00:00 2.1 -- -- -- -- 0 -- -- 98
2018-02-14 05:00:00 2 -- -- -- -- 0 -- -- 98
2018-02-14 04:00:00 1.9 -- -- -- -- 0 -- -- 98
2018-02-14 03:00:00 1.8 -- -- -- -- 0 -- -- 97
2018-02-14 02:00:00 1.7 -- -- -- -- 0.6 -- -- 97
2018-02-14 01:00:00 1.6 -- -- -- -- 0.4 -- -- 97
2018-02-14 00:00:00 1.4 -- -- -- -- 0.2 -- -- 96
2018-02-13 23:00:00 0.9 -- -- -- -- 0.2 -- -- 94
2018-02-13 22:00:00 0.9 -- -- -- -- 0 -- -- 91
2018-02-13 21:00:00 1.4 -- -- -- -- 0 -- -- 80
2018-02-13 20:00:00 1.7 -- -- -- -- 0 -- -- 76
2018-02-13 19:00:00 1.8 -- -- -- -- 0 -- -- 72
2018-02-13 18:00:00 2 -- -- -- -- 0 -- -- 70
2018-02-13 17:00:00 2.1 -- -- -- -- 0 -- -- 71
2018-02-13 16:00:00 2 -- -- -- -- 0 -- -- 73
2018-02-13 15:00:00 1.7 -- -- -- -- 0 -- -- 74
2018-02-13 14:00:00 1.4 -- -- -- -- 0 -- -- 68
2018-02-13 13:00:00 1.7 -- -- -- -- 0 -- -- 65
2018-02-13 12:00:00 0.7 -- -- -- -- 0 -- -- 69
2018-02-13 11:00:00 -0.9 -- -- -- -- 0 -- -- 77
2018-02-13 10:00:00 -4.3 -- -- -- -- 0 -- -- 94
2018-02-13 09:00:00 -7.1 -- -- -- -- 0 -- -- 93
2018-02-13 08:00:00 -7.5 -- -- -- -- 0 -- -- 93
2018-02-13 07:00:00 -7.8 -- -- -- -- 0 -- -- 92
2018-02-13 06:00:00 -7.3 -- -- -- -- 0 -- -- 92
2018-02-13 05:00:00 -6.9 -- -- -- -- 0 -- -- 92
2018-02-13 04:00:00 -6.5 -- -- -- -- 0 -- -- 92
2018-02-13 03:00:00 -6.1 -- -- -- -- 0 -- -- 91
2018-02-13 02:00:00 -5.6 -- -- -- -- 0 -- -- 89
2018-02-13 01:00:00 -4.7 -- -- -- -- 0 -- -- 89
2018-02-13 00:00:00 -3.7 -- -- -- -- 0 -- -- 87
2018-02-12 23:00:00 -2.8 -- -- -- -- 0 -- -- 83
2018-02-12 22:00:00 -1.4 -- -- -- -- 0 -- -- 79
2018-02-12 21:00:00 -0.9 -- -- -- -- 0 -- -- 76
2018-02-12 20:00:00 -0.3 -- -- -- -- 0 -- -- 72
2018-02-12 19:00:00 0.8 -- -- -- -- 0 -- -- 64
2018-02-12 18:00:00 2.3 -- -- -- -- 0 -- -- 51
2018-02-12 17:00:00 2.9 -- -- -- -- 0 -- -- 59
2018-02-12 16:00:00 2.8 -- -- -- -- 0 -- -- 59
2018-02-12 15:00:00 2.8 -- -- -- -- 0 -- -- 60
2018-02-12 14:00:00 2.9 -- -- -- -- 0 -- -- 67
2018-02-12 13:00:00 2 -- -- -- -- 0 -- -- 73
2018-02-12 12:00:00 0.8 -- -- -- -- 0.2 -- -- 84
2018-02-12 11:00:00 1.1 -- -- -- -- 0 -- -- 87
2018-02-12 10:00:00 1.4 -- -- -- -- 0 -- -- 89
2018-02-12 09:00:00 1.5 -- -- -- -- 0 -- -- 92
2018-02-12 08:00:00 1.8 -- -- -- -- 0 -- -- 92
2018-02-12 07:00:00 2.3 -- -- -- -- 0 -- -- 95
2018-02-12 06:00:00 2.4 -- -- -- -- 0 -- -- 97
2018-02-12 05:00:00 2.6 -- -- -- -- 0.6 -- -- 97
2018-02-12 04:00:00 3.3 -- -- -- -- 0.2 -- -- 97
2018-02-12 03:00:00 3.2 -- -- -- -- 0 -- -- 97
2018-02-12 02:00:00 3.2 -- -- -- -- 0 -- -- 97
2018-02-12 01:00:00 3.1 -- -- -- -- 0.8 -- -- 97
2018-02-12 00:00:00 3.2 -- -- -- -- 0 -- -- 95
2018-02-11 23:00:00 3.5 -- -- -- -- 0 -- -- 95
2018-02-11 22:00:00 3.8 -- -- -- -- 0.2 -- -- 93
2018-02-11 21:00:00 4 -- -- -- -- 0 -- -- 89
2018-02-11 20:00:00 4.5 -- -- -- -- 0 -- -- 89
2018-02-11 19:00:00 5.3 -- -- -- -- 0 -- -- 82
2018-02-11 18:00:00 6.3 -- -- -- -- 0 -- -- 77
2018-02-11 17:00:00 7.1 -- -- -- -- 0 -- -- 74
2018-02-11 16:00:00 7.5 -- -- -- -- 0 -- -- 73
2018-02-11 15:00:00 7.1 -- -- -- -- 0 -- -- 74
2018-02-11 14:00:00 6.5 -- -- -- -- 0.6 -- -- 77
2018-02-11 13:00:00 5.1 -- -- -- -- 1.6 -- -- 80
2018-02-11 12:00:00 4 -- -- -- -- 1 -- -- 85
2018-02-11 11:00:00 2.3 -- -- -- -- 0.2 -- -- 92
2018-02-11 10:00:00 0.3 -- -- -- -- 0 -- -- 94
2018-02-11 09:00:00 -0.6 -- -- -- -- 0 -- -- 94
2018-02-11 08:00:00 -0.8 -- -- -- -- 0 -- -- 94
2018-02-11 07:00:00 -0.8 -- -- -- -- 0 -- -- 94
2018-02-11 06:00:00 -0.9 -- -- -- -- 0 -- -- 93
2018-02-11 05:00:00 -1.2 -- -- -- -- 0 -- -- 93
2018-02-11 04:00:00 -1.6 -- -- -- -- 0 -- -- 93
2018-02-11 03:00:00 -2.6 -- -- -- -- 0 -- -- 90
2018-02-11 02:00:00 -2.5 -- -- -- -- 0 -- -- 91
2018-02-11 01:00:00 -1.9 -- -- -- -- 0 -- -- 86
2018-02-11 00:00:00 -1.6 -- -- -- -- 0 -- -- 89
2018-02-10 23:00:00 -1.6 -- -- -- -- 0 -- -- 89
2018-02-10 22:00:00 -0.7 -- -- -- -- 0 -- -- 85
2018-02-10 21:00:00 -1 -- -- -- -- 0 -- -- 85
2018-02-10 20:00:00 -0.3 -- -- -- -- 0 -- -- 82
2018-02-10 19:00:00 0.2 -- -- -- -- 0 -- -- 81
2018-02-10 18:00:00 0.9 -- -- -- -- 0 -- -- 77
2018-02-10 17:00:00 1.4 -- -- -- -- 0 -- -- 74
2018-02-10 16:00:00 1 -- -- -- -- 0 -- -- 74
2018-02-10 15:00:00 0.4 -- -- -- -- 0 -- -- 77
2018-02-10 14:00:00 0 -- -- -- -- 0 -- -- 76
2018-02-10 13:00:00 -0.1 -- -- -- -- 0 -- -- 77
2018-02-10 12:00:00 -0.6 -- -- -- -- 0 -- -- 80
2018-02-10 11:00:00 -1.2 -- -- -- -- 0 -- -- 80
2018-02-10 10:00:00 -1.9 -- -- -- -- 0 -- -- 80
2018-02-10 09:00:00 -2.8 -- -- -- -- 0 -- -- 82
2018-02-10 08:00:00 -2.7 -- -- -- -- 0 -- -- 78
2018-02-10 07:00:00 -2.6 -- -- -- -- 0 -- -- 78
2018-02-10 06:00:00 -2.1 -- -- -- -- 0 -- -- 75
2018-02-10 05:00:00 -2 -- -- -- -- 0 -- -- 73
2018-02-10 04:00:00 -2 -- -- -- -- 0 -- -- 81
2018-02-10 03:00:00 -1.5 -- -- -- -- 0 -- -- 80
2018-02-10 02:00:00 -0.9 -- -- -- -- 0 -- -- 80
2018-02-10 01:00:00 -0.2 -- -- -- -- 0 -- -- 80
2018-02-10 00:00:00 0.2 -- -- -- -- 0 -- -- 82
2018-02-09 23:00:00 0.5 -- -- -- -- 0 -- -- 84
2018-02-09 22:00:00 0.3 -- -- -- -- 0 -- -- 88
2018-02-09 21:00:00 0 -- -- -- -- 0 -- -- 91
2018-02-09 20:00:00 -0.5 -- -- -- -- 0 -- -- 88
2018-02-09 19:00:00 -0.3 -- -- -- -- 0 -- -- 87
2018-02-09 18:00:00 0.6 -- -- -- -- 0 -- -- 81
2018-02-09 17:00:00 1 -- -- -- -- 0.6 -- -- 79
2018-02-09 16:00:00 1.6 -- -- -- -- 0.8 -- -- 74
2018-02-09 15:00:00 2.3 -- -- -- -- 1.2 -- -- 63
2018-02-09 14:00:00 1.3 -- -- -- -- 1.2 -- -- 63
2018-02-09 13:00:00 0.9 -- -- -- -- 1.2 -- -- 64
2018-02-09 12:00:00 -1.5 -- -- -- -- 0.6 -- -- 73
2018-02-09 11:00:00 -6 -- -- -- -- 0 -- -- 89
2018-02-09 10:00:00 -9.8 -- -- -- -- 0 -- -- 92
2018-02-09 09:00:00 -11.6 -- -- -- -- 0 -- -- 90
2018-02-09 08:00:00 -11.7 -- -- -- -- 0 -- -- 89
2018-02-09 07:00:00 -11.3 -- -- -- -- 0 -- -- 90
2018-02-09 06:00:00 -11.1 -- -- -- -- 0 -- -- 89
2018-02-09 05:00:00 -10.5 -- -- -- -- 0 -- -- 88
2018-02-09 04:00:00 -9.8 -- -- -- -- 0 -- -- 89
2018-02-09 03:00:00 -9.2 -- -- -- -- 0 -- -- 89
2018-02-09 02:00:00 -8.3 -- -- -- -- 0 -- -- 88
2018-02-09 01:00:00 -7.2 -- -- -- -- 0 -- -- 86
2018-02-09 00:00:00 -5.8 -- -- -- -- 0 -- -- 86
2018-02-08 23:00:00 -4.1 -- -- -- -- 0 -- -- 84
2018-02-08 22:00:00 -2.7 -- -- -- -- 0 -- -- 82
2018-02-08 21:00:00 -2.3 -- -- -- -- 0 -- -- 81
2018-02-08 20:00:00 -2.2 -- -- -- -- 0 -- -- 81
2018-02-08 19:00:00 -2 -- -- -- -- 0 -- -- 78
2018-02-08 18:00:00 -1.5 -- -- -- -- 0 -- -- 75
2018-02-08 17:00:00 -1.2 -- -- -- -- 0 -- -- 75
2018-02-08 16:00:00 -1 -- -- -- -- 0 -- -- 72
2018-02-08 15:00:00 -1.1 -- -- -- -- 0 -- -- 70
2018-02-08 14:00:00 -1.7 -- -- -- -- 0 -- -- 74
2018-02-08 13:00:00 -2.1 -- -- -- -- 0 -- -- 74
2018-02-08 12:00:00 -2.3 -- -- -- -- 0 -- -- 73
2018-02-08 11:00:00 -2.6 -- -- -- -- 0 -- -- 77
2018-02-08 10:00:00 -4.1 -- -- -- -- 0 -- -- 79
2018-02-08 09:00:00 -5.9 -- -- -- -- 0 -- -- 88
2018-02-08 08:00:00 -6.7 -- -- -- -- 0 -- -- 90
2018-02-08 07:00:00 -8 -- -- -- -- 0 -- -- 90
2018-02-08 06:00:00 -8.5 -- -- -- -- 0 -- -- 89
2018-02-08 05:00:00 -8.5 -- -- -- -- 0 -- -- 88
2018-02-08 04:00:00 -8 -- -- -- -- 0 -- -- 86
2018-02-08 03:00:00 -6.8 -- -- -- -- 0 -- -- 82
2018-02-08 02:00:00 -5.5 -- -- -- -- 0 -- -- 79
2018-02-08 01:00:00 -6.1 -- -- -- -- 0 -- -- 84
2018-02-08 00:00:00 -5.3 -- -- -- -- 0 -- -- 81
2018-02-07 23:00:00 -5.4 -- -- -- -- 0 -- -- 81
2018-02-07 22:00:00 -4.9 -- -- -- -- 0 -- -- 79
2018-02-07 21:00:00 -4 -- -- -- -- 0 -- -- 75
2018-02-07 20:00:00 -3.3 -- -- -- -- 0 -- -- 72
2018-02-07 19:00:00 -2.9 -- -- -- -- 0 -- -- 72
2018-02-07 18:00:00 -2 -- -- -- -- 0 -- -- 68
2018-02-07 17:00:00 -1.8 -- -- -- -- 0 -- -- 71
2018-02-07 16:00:00 -1.3 -- -- -- -- 0.2 -- -- 69
2018-02-07 15:00:00 -0.9 -- -- -- -- 0.2 -- -- 66
2018-02-07 14:00:00 -1.2 -- -- -- -- 0 -- -- 66
2018-02-07 13:00:00 -1.7 -- -- -- -- 0 -- -- 67
2018-02-07 12:00:00 -2.1 -- -- -- -- 0 -- -- 70
2018-02-07 11:00:00 -2.9 -- -- -- -- 0 -- -- 75
2018-02-07 10:00:00 -3.5 -- -- -- -- 0 -- -- 77
2018-02-07 09:00:00 -4.5 -- -- -- -- 0 -- -- 79
2018-02-07 08:00:00 -4.2 -- -- -- -- 0 -- -- 77
2018-02-07 07:00:00 -4.4 -- -- -- -- 0 -- -- 80
2018-02-07 06:00:00 -4.2 -- -- -- -- 0 -- -- 79
2018-02-07 05:00:00 -4 -- -- -- -- 0 -- -- 81
2018-02-07 04:00:00 -4 -- -- -- -- 0 -- -- 79
2018-02-07 03:00:00 -4.3 -- -- -- -- 0 -- -- 82
2018-02-07 02:00:00 -4.3 -- -- -- -- 0 -- -- 83
2018-02-07 01:00:00 -4.2 -- -- -- -- 0 -- -- 82
2018-02-07 00:00:00 -4.1 -- -- -- -- 0 -- -- 79
2018-02-06 23:00:00 -4 -- -- -- -- 0 -- -- 82
2018-02-06 22:00:00 -3.5 -- -- -- -- 0 -- -- 79
2018-02-06 21:00:00 -3.3 -- -- -- -- 0 -- -- 80
2018-02-06 20:00:00 -3.2 -- -- -- -- 0 -- -- 82
2018-02-06 19:00:00 -3 -- -- -- -- 0 -- -- 78
2018-02-06 18:00:00 -2.6 -- -- -- -- 0 -- -- 79
2018-02-06 17:00:00 -2.1 -- -- -- -- 0 -- -- 76
2018-02-06 16:00:00 -2.1 -- -- -- -- 0 -- -- 74
2018-02-06 15:00:00 -1.9 -- -- -- -- 0 -- -- 78
2018-02-06 14:00:00 -2.5 -- -- -- -- 0 -- -- 82
2018-02-06 13:00:00 -2.8 -- -- -- -- 0 -- -- 82
2018-02-06 12:00:00 -3 -- -- -- -- 0 -- -- 82
2018-02-06 11:00:00 -3 -- -- -- -- 0 -- -- 82
2018-02-06 10:00:00 -3.2 -- -- -- -- 0 -- -- 86
2018-02-06 09:00:00 -3 -- -- -- -- 0 -- -- 88
2018-02-06 08:00:00 -2.6 -- -- -- -- 0 -- -- 89
2018-02-06 07:00:00 -2.2 -- -- -- -- 0 -- -- 89
2018-02-06 06:00:00 -1.8 -- -- -- -- 0 -- -- 89
2018-02-06 05:00:00 -1.6 -- -- -- -- 0 -- -- 89
2018-02-06 04:00:00 -1.5 -- -- -- -- 0 -- -- 93
2018-02-06 03:00:00 -1.5 -- -- -- -- 0 -- -- 91